Time;durP1;ratioP1;P1;durP2;ratioP2;P2;SDS_P1;SDS_P2;PMS_P1;PMS_P2;Temp;Humidity;BMP_temperature;BMP_pressure;BME280_temperature;BME280_humidity;BME280_pressure;Samples;Min_cycle;Max_cycle;Signal;HPM_P1;HPM_P2
2022/06/18 00:01:33;;;;;;;4.20;2.47;;;;;;;18.42;68.51;96829.16;5002357;28;20034;-80
2022/06/18 00:04:19;;;;;;;6.95;2.45;;;;;;;18.40;68.63;96826.69;4982758;28;20030;-80
2022/06/18 00:07:01;;;;;;;4.88;2.45;;;;;;;18.35;67.91;96826.44;4996859;28;20106;-80
2022/06/18 00:09:33;;;;;;;2.92;2.15;;;;;;;18.44;67.56;96829.78;5013734;28;20039;-79
2022/06/18 00:15:11;;;;;;;4.00;2.00;;;;;;;18.37;66.22;96833.22;4992635;28;20035;-80
2022/06/18 00:17:37;;;;;;;4.30;2.10;;;;;;;18.39;65.15;96825.03;4996917;28;20030;-82
2022/06/18 00:20:03;;;;;;;4.43;2.08;;;;;;;18.29;68.47;96828.03;5005625;28;20031;-80
2022/06/18 00:22:29;;;;;;;3.08;1.95;;;;;;;18.24;65.54;96832.28;5001982;28;20062;-80
2022/06/18 00:24:55;;;;;;;4.55;2.22;;;;;;;18.23;63.88;96828.81;5000224;28;20090;-80
2022/06/18 00:27:21;;;;;;;2.85;1.80;;;;;;;18.28;63.16;96833.56;5005813;28;20058;-80
2022/06/18 00:29:49;;;;;;;5.53;1.77;;;;;;;18.26;63.75;96824.94;5006699;28;20567;-80
2022/06/18 00:32:14;;;;;;;4.25;2.17;;;;;;;18.30;63.42;96828.84;4998971;28;20102;-80
2022/06/18 00:34:40;;;;;;;3.10;1.77;;;;;;;18.25;64.89;96828.63;4999823;28;20034;-80
2022/06/18 00:37:09;;;;;;;3.65;1.90;;;;;;;18.25;66.96;96826.78;5004566;28;20038;-80
2022/06/18 00:39:35;;;;;;;3.67;1.85;;;;;;;18.21;66.42;96825.53;5005844;28;20045;-80
2022/06/18 00:42:07;;;;;;;4.43;1.98;;;;;;;18.13;66.19;96825.66;5006774;28;20034;-80
2022/06/18 00:44:41;;;;;;;3.22;1.90;;;;;;;18.19;65.00;96824.06;5005113;28;20041;-80
2022/06/18 00:47:18;;;;;;;4.80;1.90;;;;;;;18.19;64.01;96822.22;4998451;28;20045;-80
2022/06/18 00:50:06;;;;;;;2.85;1.90;;;;;;;18.15;65.10;96818.31;4991859;28;20383;-79
2022/06/18 00:52:47;;;;;;;5.05;2.17;;;;;;;18.15;63.50;96810.31;5006457;28;20042;-79
2022/06/18 00:55:23;;;;;;;4.13;1.90;;;;;;;18.13;63.64;96818.47;4998965;28;20038;-80
2022/06/18 00:58:01;;;;;;;3.97;2.20;;;;;;;18.10;63.52;96818.88;4979707;28;20106;-80
2022/06/18 01:00:38;;;;;;;5.15;1.83;;;;;;;18.09;63.06;96814.56;4984616;28;20038;-79
2022/06/18 01:03:05;;;;;;;3.35;1.60;;;;;;;18.01;64.60;96812.06;4975540;28;20030;-80
2022/06/18 01:05:39;;;;;;;3.28;1.83;;;;;;;18.09;62.80;96809.25;5003877;28;20045;-80
2022/06/18 01:08:13;;;;;;;5.97;1.88;;;;;;;18.09;61.45;96809.25;4999633;28;20039;-80
2022/06/18 01:10:42;;;;;;;2.13;1.50;;;;;;;18.06;60.55;96809.63;4998297;28;20455;-80
2022/06/18 01:13:11;;;;;;;3.22;1.52;;;;;;;18.04;60.11;96806.34;4989132;28;20053;-80
2022/06/18 01:15:40;;;;;;;3.22;1.83;;;;;;;18.07;61.33;96805.13;4991516;28;20090;-82
2022/06/18 01:18:07;;;;;;;4.28;1.77;;;;;;;18.04;59.96;96803.69;5005486;28;20038;-80
2022/06/18 01:20:41;;;;;;;2.80;1.48;;;;;;;18.05;59.80;96800.00;5005106;28;20045;-80
2022/06/18 01:23:12;;;;;;;3.15;1.52;;;;;;;18.02;59.78;96792.41;5005267;28;20031;-80
2022/06/18 01:25:38;;;;;;;4.20;1.67;;;;;;;18.00;61.02;96794.41;4983530;28;20050;-80
2022/06/18 01:28:04;;;;;;;3.20;1.50;;;;;;;18.02;60.47;96795.06;4999973;28;20038;-80
2022/06/18 01:30:42;;;;;;;3.63;1.60;;;;;;;18.00;60.39;96791.75;4987019;28;20067;-80
2022/06/18 01:33:15;;;;;;;3.37;1.70;;;;;;;17.94;61.30;96783.72;4985562;28;20042;-78
2022/06/18 01:35:47;;;;;;;4.20;1.75;;;;;;;17.88;62.13;96785.31;4965724;28;20454;-78
2022/06/18 01:38:17;;;;;;;5.45;1.95;;;;;;;17.84;61.35;96782.22;4997760;28;20031;-79
2022/06/18 01:41:49;;;;;;;4.43;1.80;;;;;;;17.82;60.77;96775.44;4997542;28;20038;-78
2022/06/18 01:43:54;;;;;;;4.95;2.15;;;;;;;17.88;60.28;96774.69;4998788;28;20061;-78
2022/06/18 01:46:20;;;;;;;2.20;1.27;;;;;;;17.83;60.64;96774.41;5001949;28;20031;-78
2022/06/18 01:48:49;;;;;;;6.35;1.70;;;;;;;17.81;60.77;96771.97;5001764;28;20065;-78
2022/06/18 01:51:23;;;;;;;2.25;1.63;;;;;;;17.74;60.74;96767.53;5003265;28;20030;-78
2022/06/18 01:53:58;;;;;;;5.13;2.00;;;;;;;17.77;60.55;96761.88;5003067;28;20030;-78
2022/06/18 01:56:30;;;;;;;2.70;1.73;;;;;;;17.75;60.31;96754.06;5004469;28;20034;-78
2022/06/18 01:59:18;;;;;;;;;;;;;;;17.77;60.60;96748.56;4988519;28;20065;-79
2022/06/18 02:01:46;;;;;;;4.28;1.55;;;;;;;17.79;60.49;96751.88;5020109;28;19914;-78
2022/06/18 02:04:16;;;;;;;6.15;2.05;;;;;;;17.79;60.02;96746.56;4972698;28;20043;-78
2022/06/18 02:06:44;;;;;;;5.18;1.70;;;;;;;17.81;59.61;96742.69;4993431;28;20035;-78
2022/06/18 02:09:34;;;;;;;2.63;1.63;;;;;;;17.79;60.17;96733.25;4998527;28;20040;-78
2022/06/18 02:12:06;;;;;;;4.05;1.90;;;;;;;17.83;59.33;96729.19;5004674;28;20034;-78
2022/06/18 02:14:48;;;;;;;2.83;1.83;;;;;;;17.86;59.32;96728.81;5000641;28;20131;-78
2022/06/18 02:17:18;;;;;;;2.45;1.50;;;;;;;17.85;59.74;96727.19;4992854;28;20037;-78
2022/06/18 02:20:12;;;;;;;2.00;1.52;;;;;;;17.82;59.87;96730.22;4985779;28;20057;-78
2022/06/18 02:22:42;;;;;;;3.80;1.67;;;;;;;17.83;59.67;96718.56;4986631;28;20064;-78
2022/06/18 02:25:09;;;;;;;3.42;1.58;;;;;;;17.80;59.89;96718.94;5000553;28;20499;-78
2022/06/18 02:27:35;;;;;;;3.78;1.83;;;;;;;17.81;59.70;96715.28;4997174;28;20050;-78
2022/06/18 02:30:01;;;;;;;2.63;1.40;;;;;;;17.84;59.71;96717.53;4983153;28;20034;-78
2022/06/18 02:32:41;;;;;;;4.65;1.67;;;;;;;17.86;59.68;96716.31;4986514;28;20094;-78
2022/06/18 02:35:14;;;;;;;4.65;1.77;;;;;;;17.84;60.87;96718.38;4981593;28;20042;-78
2022/06/18 02:37:41;;;;;;;8.38;1.73;;;;;;;17.74;61.66;96714.34;4996172;28;20057;-78
2022/06/18 02:40:24;;;;;;;2.55;1.60;;;;;;;17.71;62.08;96712.09;5001130;28;20053;-78
2022/06/18 02:42:53;;;;;;;2.90;1.85;;;;;;;17.59;63.34;96707.28;4981927;28;20035;-78
2022/06/18 02:45:21;;;;;;;4.00;1.80;;;;;;;17.53;64.07;96713.34;4988426;28;20113;-78
2022/06/18 02:47:48;;;;;;;4.90;2.00;;;;;;;17.33;66.23;96715.00;4988272;28;20062;-78
2022/06/18 02:50:16;;;;;;;3.17;1.88;;;;;;;17.15;66.92;96718.13;5001585;28;20049;-78
2022/06/18 02:52:46;;;;;;;3.17;1.75;;;;;;;17.04;69.02;96724.75;5003083;28;20027;-78
2022/06/18 02:55:20;;;;;;;2.42;1.58;;;;;;;17.05;73.22;96721.06;5002741;28;20033;-78
2022/06/18 02:57:52;;;;;;;3.40;1.88;;;;;;;16.96;71.32;96716.88;4996211;28;20034;-78
2022/06/18 03:00:18;;;;;;;2.25;1.40;;;;;;;16.98;71.13;96714.03;5002978;28;20089;-78
2022/06/18 03:02:44;;;;;;;6.80;1.92;;;;;;;17.03;71.76;96722.25;5002085;28;20054;-78
2022/06/18 03:05:23;;;;;;;4.07;1.98;;;;;;;17.05;72.45;96728.22;4984240;28;20540;-78
2022/06/18 03:07:49;;;;;;;2.40;1.80;;;;;;;17.04;73.21;96721.28;4984889;28;20042;-78
2022/06/18 03:13:02;;;;;;;2.75;1.70;;;;;;;17.01;73.00;96713.69;5008687;28;20118;-78
2022/06/18 03:15:31;;;;;;;5.15;1.80;;;;;;;17.03;71.69;96716.94;5001292;28;20057;-78
2022/06/18 03:17:58;;;;;;;4.60;2.15;;;;;;;17.00;70.52;96717.31;5001727;28;20034;-78
2022/06/18 03:20:54;;;;;;;4.32;1.55;;;;;;;17.04;71.22;96714.13;5000515;28;20384;-79
2022/06/18 03:23:23;;;;;;;5.55;1.92;;;;;;;17.09;71.81;96709.03;5000202;28;20515;-78
2022/06/18 03:25:51;;;;;;;2.65;1.50;;;;;;;17.05;71.80;96712.28;5000277;28;20065;-78
2022/06/18 03:28:18;;;;;;;2.75;1.85;;;;;;;17.04;73.69;96711.47;4981156;28;20031;-78
2022/06/18 03:30:44;;;;;;;3.08;1.88;;;;;;;17.02;73.70;96705.50;4981749;28;20050;-78
2022/06/18 03:33:12;;;;;;;2.95;1.73;;;;;;;17.05;74.69;96705.13;4996701;28;20377;-78
2022/06/18 03:35:45;;;;;;;5.07;1.90;;;;;;;17.05;75.26;96699.81;5001589;28;20033;-78
2022/06/18 03:38:14;;;;;;;4.80;2.05;;;;;;;17.03;74.55;96701.00;4984992;28;20102;-78
2022/06/18 03:40:43;;;;;;;3.40;1.60;;;;;;;17.03;74.69;96707.13;4968422;28;20038;-78
2022/06/18 03:43:10;;;;;;;3.88;1.77;;;;;;;17.03;74.53;96699.16;4995781;28;20161;-78
2022/06/18 03:45:43;;;;;;;3.30;1.77;;;;;;;17.00;69.52;96696.91;4999772;28;20030;-78
2022/06/18 03:48:44;;;;;;;3.15;2.03;;;;;;;17.03;68.78;96690.38;5006680;28;20072;-77
2022/06/18 03:51:13;;;;;;;4.70;1.90;;;;;;;17.07;68.51;96696.94;4987039;28;20050;-77
2022/06/18 03:53:40;;;;;;;4.72;2.15;;;;;;;17.13;67.47;96697.03;4971911;28;20551;-78
2022/06/18 03:56:06;;;;;;;3.30;1.95;;;;;;;17.17;69.80;96702.81;4985911;28;20058;-78
2022/06/18 03:58:38;;;;;;;6.57;1.52;;;;;;;17.18;68.14;96693.81;4988709;28;20034;-78
2022/06/18 04:01:04;;;;;;;3.90;1.58;;;;;;;17.18;69.18;96702.59;4998998;28;20109;-78
2022/06/18 04:03:31;;;;;;;3.83;1.80;;;;;;;17.30;67.43;96691.47;4985911;28;20121;-78
2022/06/18 04:05:58;;;;;;;2.90;1.60;;;;;;;17.36;66.91;96696.84;4975619;28;20042;-78
2022/06/18 04:08:24;;;;;;;3.75;1.63;;;;;;;17.49;65.43;96703.31;5002954;28;20092;-78
2022/06/18 04:10:57;;;;;;;4.47;2.20;;;;;;;17.57;65.00;96697.84;5002934;28;20030;-78
2022/06/18 04:13:23;;;;;;;3.20;1.70;;;;;;;17.67;63.60;96701.84;4988324;28;20080;-77
2022/06/18 04:15:53;;;;;;;5.65;1.67;;;;;;;17.70;64.77;96699.78;5006614;28;20241;-78
2022/06/18 04:18:27;;;;;;;3.95;1.80;;;;;;;17.74;64.32;96701.03;4991848;28;20498;-78
2022/06/18 04:20:54;;;;;;;2.65;1.40;;;;;;;17.76;63.99;96701.69;5007626;28;20039;-78
2022/06/18 04:23:21;;;;;;;3.15;1.48;;;;;;;17.84;63.99;96702.41;5007597;28;20101;-78
2022/06/18 04:25:48;;;;;;;2.72;1.48;;;;;;;17.97;63.57;96692.84;5011446;28;20143;-78
2022/06/18 04:28:16;;;;;;;3.20;1.50;;;;;;;18.08;63.37;96693.16;4978146;28;20043;-78
2022/06/18 04:30:48;;;;;;;2.92;1.70;;;;;;;18.12;64.09;96697.06;4986189;28;20058;-77
2022/06/18 04:33:21;;;;;;;4.80;2.13;;;;;;;18.20;63.55;96696.09;4985416;28;20067;-78
2022/06/18 04:36:01;;;;;;;4.20;2.00;;;;;;;18.26;62.18;96689.16;4990510;28;20541;-79
2022/06/18 04:38:27;;;;;;;5.03;1.80;;;;;;;18.32;62.21;96702.50;5003820;28;20451;-78
2022/06/18 04:41:18;;;;;;;4.22;1.73;;;;;;;18.44;61.80;96707.28;5004111;28;20037;-78
2022/06/18 04:43:50;;;;;;;2.92;1.80;;;;;;;18.58;62.35;96706.34;4984286;28;20031;-77
2022/06/18 04:46:17;;;;;;;3.65;2.15;;;;;;;18.54;62.54;96702.41;4984867;28;20369;-78
2022/06/18 04:48:48;;;;;;;4.03;1.70;;;;;;;18.64;63.48;96699.38;4969400;28;20033;-78
2022/06/18 04:51:13;;;;;;;3.35;1.73;;;;;;;18.74;63.26;96700.69;4973246;28;20035;-78
2022/06/18 04:53:39;;;;;;;4.55;1.77;;;;;;;18.75;63.65;96706.84;5007279;28;20093;-78
2022/06/18 04:56:07;;;;;;;5.05;1.98;;;;;;;18.91;63.65;96700.31;5005760;28;20385;-78
2022/06/18 04:58:35;;;;;;;9.18;2.40;;;;;;;18.97;63.93;96705.69;5004927;28;20026;-78
2022/06/18 05:01:01;;;;;;;3.40;2.00;;;;;;;19.00;64.52;96705.28;5005536;28;20042;-78
2022/06/18 05:03:47;;;;;;;3.50;1.90;;;;;;;19.18;65.46;96704.72;5005517;28;20042;-78
2022/06/18 05:06:32;;;;;;;4.00;1.83;;;;;;;19.10;67.21;96704.91;5007338;28;20052;-78
2022/06/18 05:09:13;;;;;;;3.40;1.67;;;;;;;19.26;66.81;96714.38;4991245;28;20115;-78
2022/06/18 05:11:57;;;;;;;3.17;2.15;;;;;;;19.39;66.58;96708.25;5005605;28;20504;-78
2022/06/18 05:14:59;;;;;;;5.78;1.70;;;;;;;19.44;66.89;96711.94;5003911;28;20050;-78
2022/06/18 05:17:29;;;;;;;4.30;2.00;;;;;;;19.64;66.61;96714.66;4988537;28;20537;-77
2022/06/18 05:19:56;;;;;;;3.92;2.17;;;;;;;19.66;67.08;96711.81;5004706;28;20042;-78
2022/06/18 05:22:23;;;;;;;4.40;1.90;;;;;;;19.86;68.71;96707.28;5004530;28;20462;-78
2022/06/18 05:24:51;;;;;;;3.65;1.90;;;;;;;19.89;66.94;96714.88;5004771;28;20081;-78
2022/06/18 05:27:26;;;;;;;3.40;1.55;;;;;;;20.15;65.90;96703.31;4999254;28;20077;-78
2022/06/18 05:29:54;;;;;;;4.22;1.80;;;;;;;20.21;65.77;96702.50;5004721;28;20034;-78
2022/06/18 05:32:19;;;;;;;3.45;1.88;;;;;;;20.46;63.44;96702.66;5003996;28;20137;-79
2022/06/18 05:34:46;;;;;;;4.05;1.90;;;;;;;20.50;63.15;96708.41;5001737;28;20051;-79
2022/06/18 05:37:24;;;;;;;4.53;2.33;;;;;;;20.83;63.00;96702.16;5001217;28;20029;-78
2022/06/18 05:39:51;;;;;;;6.03;1.95;;;;;;;20.96;61.30;96704.78;4985729;28;20057;-77
2022/06/18 05:42:17;;;;;;;3.53;1.77;;;;;;;21.07;61.89;96711.28;4996255;28;20120;-79
2022/06/18 05:44:42;;;;;;;4.18;2.10;;;;;;;21.29;57.93;96703.75;4977265;28;20038;-79
2022/06/18 05:47:33;;;;;;;6.93;1.90;;;;;;;21.67;58.89;96701.06;5001054;28;20070;-78
2022/06/18 05:50:01;;;;;;;2.83;1.73;;;;;;;21.84;58.49;96699.47;4999663;28;20065;-78
2022/06/18 05:52:29;;;;;;;7.75;1.98;;;;;;;22.24;58.93;96695.66;4994562;28;20031;-78
2022/06/18 05:55:01;;;;;;;3.90;1.85;;;;;;;22.39;59.63;96692.59;4984585;28;20038;-79
2022/06/18 05:57:50;;;;;;;4.80;1.60;;;;;;;22.64;58.83;96689.84;4987125;28;20038;-78
2022/06/18 06:00:24;;;;;;;5.82;2.00;;;;;;;22.78;57.79;96686.78;5000464;28;20030;-79
2022/06/18 06:02:52;;;;;;;3.65;2.05;;;;;;;23.19;57.37;96687.09;5000069;28;20040;-79
2022/06/18 06:05:19;;;;;;;3.58;1.70;;;;;;;23.24;56.00;96687.25;4994012;28;20058;-79
2022/06/18 06:07:45;;;;;;;4.47;1.80;;;;;;;23.51;54.16;96685.00;4992768;28;20037;-79
2022/06/18 06:13:10;;;;;;;4.13;2.20;;;;;;;23.85;53.02;96675.38;5014284;28;20042;-79
2022/06/18 06:15:37;;;;;;;2.80;1.80;;;;;;;24.26;51.32;96678.19;4999524;28;20426;-79
2022/06/18 06:18:04;;;;;;;2.28;1.40;;;;;;;24.34;44.09;96675.94;4996641;28;20070;-79
2022/06/18 06:20:34;;;;;;;2.13;1.40;;;;;;;24.79;41.95;96669.09;4993250;28;20037;-79
2022/06/18 06:23:00;;;;;;;5.90;1.80;;;;;;;25.01;41.11;96675.44;4984180;28;20033;-79
2022/06/18 06:25:26;;;;;;;3.17;1.63;;;;;;;25.00;40.98;96675.69;5002219;28;20081;-80
2022/06/18 06:27:51;;;;;;;3.03;1.88;;;;;;;24.71;42.55;96667.59;4981958;28;20034;-79
2022/06/18 06:30:18;;;;;;;5.30;1.70;;;;;;;25.35;42.35;96672.88;4978412;28;20049;-79
2022/06/18 06:32:44;;;;;;;5.70;1.98;;;;;;;25.82;41.85;96672.59;4998806;28;20042;-80
2022/06/18 06:35:12;;;;;;;3.05;1.63;;;;;;;26.19;40.85;96675.63;4992808;28;20042;-79
2022/06/18 06:37:38;;;;;;;2.40;1.48;;;;;;;26.11;40.97;96670.63;4983910;28;20038;-80
2022/06/18 06:40:04;;;;;;;2.97;1.67;;;;;;;26.65;40.31;96665.44;5003311;28;20034;-80
2022/06/18 06:42:38;;;;;;;5.28;1.67;;;;;;;26.55;40.52;96666.13;4994164;28;20035;-79
2022/06/18 06:45:05;;;;;;;3.80;1.50;;;;;;;26.91;40.26;96665.78;5000618;28;20031;-80
2022/06/18 06:47:30;;;;;;;4.40;1.75;;;;;;;27.10;40.35;96667.06;4991884;28;20431;-79
2022/06/18 06:49:56;;;;;;;3.25;1.70;;;;;;;27.19;38.50;96664.75;4995323;28;20022;-78
2022/06/18 06:52:22;;;;;;;4.05;1.73;;;;;;;27.60;38.61;96659.72;4995373;28;20022;-79
2022/06/18 06:57:21;;;;;;;3.20;1.67;;;;;;;28.08;37.12;96656.06;4994553;28;20058;-79
2022/06/18 06:57:33;;;;;;;2.97;1.65;;;;;;;27.87;37.14;96655.13;4985001;28;20073;-79
2022/06/18 06:59:59;;;;;;;3.53;1.90;;;;;;;28.17;36.06;96651.81;4986029;28;20022;-79
2022/06/18 07:02:24;;;;;;;4.72;1.95;;;;;;;28.21;36.76;96654.81;4989911;28;20038;-79
2022/06/18 07:04:50;;;;;;;3.78;1.70;;;;;;;28.55;37.26;96657.19;4987677;28;20046;-80
2022/06/18 07:07:16;;;;;;;2.22;1.63;;;;;;;28.50;35.88;96651.72;4981797;28;20050;-80
2022/06/18 07:09:42;;;;;;;2.25;1.60;;;;;;;29.20;34.87;96657.69;4980649;28;20035;-80
2022/06/18 07:12:08;;;;;;;2.42;1.58;;;;;;;28.80;37.37;96662.69;4996384;28;20057;-81
2022/06/18 07:14:36;;;;;;;5.47;2.35;;;;;;;28.95;34.72;96650.31;4988904;28;20503;-81
2022/06/18 07:17:02;;;;;;;3.72;1.80;;;;;;;28.87;35.10;96652.44;4991735;28;20554;-80
2022/06/18 07:19:28;;;;;;;4.15;1.70;;;;;;;28.94;36.04;96654.91;4993028;28;20109;-79
2022/06/18 07:21:53;;;;;;;7.07;1.95;;;;;;;29.27;36.35;96653.63;4991969;28;20385;-81
2022/06/18 07:24:20;;;;;;;3.97;1.75;;;;;;;28.97;35.04;96651.63;4970241;28;20030;-81
2022/06/18 07:26:46;;;;;;;4.13;1.50;;;;;;;29.44;33.63;96652.56;4991642;28;20076;-79
2022/06/18 07:29:13;;;;;;;3.55;1.80;;;;;;;29.77;34.59;96654.78;4981550;28;20038;-78
2022/06/18 07:31:40;;;;;;;4.00;1.83;;;;;;;29.74;33.37;96657.22;4984164;28;20165;-78
2022/06/18 07:34:06;;;;;;;2.63;1.90;;;;;;;29.94;33.13;96650.97;4997140;28;20038;-79
2022/06/18 07:36:32;;;;;;;3.30;1.50;;;;;;;30.19;33.58;96655.59;4986965;28;20042;-80
2022/06/18 07:39:02;;;;;;;8.48;5.63;;;;;;;30.18;34.34;96651.22;4990453;28;20194;-80
2022/06/18 07:41:35;;;;;;;3.40;1.60;;;;;;;30.20;32.51;96649.88;4988221;28;20037;-79
2022/06/18 07:44:02;;;;;;;6.13;2.33;;;;;;;29.93;33.01;96649.38;4989287;28;20060;-80
2022/06/18 07:46:29;;;;;;;2.70;1.83;;;;;;;30.04;32.39;96650.97;4987203;28;20113;-79
2022/06/18 07:48:55;;;;;;;4.32;2.47;;;;;;;30.20;33.68;96647.19;4988046;28;20491;-79
2022/06/18 07:51:22;;;;;;;3.58;1.85;;;;;;;30.95;33.92;96641.78;5007065;28;20081;-79
2022/06/18 07:53:48;;;;;;;3.67;1.77;;;;;;;30.46;32.24;96637.06;4974078;28;20117;-79
2022/06/18 07:56:15;;;;;;;2.30;1.70;;;;;;;30.77;32.78;96636.97;4993616;28;20076;-80
2022/06/18 07:58:42;;;;;;;3.03;1.67;;;;;;;31.43;31.63;96633.91;4969502;28;20432;-76
2022/06/18 08:01:08;;;;;;;2.30;1.58;;;;;;;30.61;31.05;96636.19;4982374;28;20117;-75
2022/06/18 08:03:35;;;;;;;3.63;1.42;;;;;;;30.73;32.33;96636.69;4968531;28;20121;-74
2022/06/18 08:06:02;;;;;;;4.90;1.90;;;;;;;31.28;31.13;96631.25;4991026;28;20060;-81
2022/06/18 08:08:28;;;;;;;3.47;1.83;;;;;;;30.88;32.16;96624.97;4992132;28;20042;-81
2022/06/18 08:10:54;;;;;;;4.22;1.58;;;;;;;31.48;30.54;96627.59;4966721;28;20077;-81
2022/06/18 08:13:21;;;;;;;4.00;1.65;;;;;;;31.62;30.94;96631.31;4968259;28;20038;-77
2022/06/18 08:15:47;;;;;;;4.57;1.80;;;;;;;31.73;29.45;96623.06;4989676;28;20041;-77
2022/06/18 08:18:12;;;;;;;2.45;1.50;;;;;;;31.65;31.22;96624.47;4986570;28;20037;-77
2022/06/18 08:20:41;;;;;;;2.63;1.80;;;;;;;32.02;31.44;96620.38;4991915;28;20042;-77
2022/06/18 08:23:07;;;;;;;3.38;1.60;;;;;;;32.55;29.71;96615.72;4992024;28;20353;-76
2022/06/18 08:25:39;;;;;;;4.75;1.60;;;;;;;32.35;29.68;96613.22;4969642;28;20611;-76
2022/06/18 08:28:05;;;;;;;6.95;1.80;;;;;;;32.35;28.37;96614.03;4991593;28;20542;-77
2022/06/18 08:30:32;;;;;;;4.47;1.75;;;;;;;32.11;27.13;96613.22;4988919;28;20038;-76
2022/06/18 08:32:58;;;;;;;2.78;1.70;;;;;;;32.45;28.67;96601.44;4978754;28;20106;-76
2022/06/18 08:35:24;;;;;;;3.58;1.65;;;;;;;32.77;28.16;96606.22;4985328;28;20188;-76
2022/06/18 08:37:51;;;;;;;3.75;1.55;;;;;;;32.60;27.74;96612.16;4986396;28;20121;-78
2022/06/18 08:40:45;;;;;;;1.95;1.40;;;;;;;32.76;27.54;96607.31;4989034;28;20117;-76
2022/06/18 08:43:36;;;;;;;2.22;1.23;;;;;;;32.80;25.96;96608.38;4986869;28;20081;-79
2022/06/18 08:46:18;;;;;;;2.20;1.50;;;;;;;32.76;26.57;96608.09;4997296;28;20050;-81
2022/06/18 08:49:05;;;;;;;3.63;1.57;;;;;;;33.40;25.72;96614.06;5006162;28;20038;-78
2022/06/18 08:52:01;;;;;;;2.92;1.88;;;;;;;32.77;26.42;96614.38;4989135;28;20168;-81
2022/06/18 08:54:51;;;;;;;2.88;1.40;;;;;;;33.77;25.15;96617.81;4977447;28;20038;-81
2022/06/18 08:57:35;;;;;;;1.75;1.40;;;;;;;33.22;27.82;96614.88;4986153;28;20045;-81
2022/06/18 09:00:12;;;;;;;4.22;1.80;;;;;;;33.91;26.21;96610.50;4971573;28;20229;-81
2022/06/18 09:02:46;;;;;;;1.75;1.45;;;;;;;33.40;26.12;96611.34;4994709;28;20038;-80
2022/06/18 09:05:49;;;;;;;3.53;1.30;;;;;;;33.49;25.36;96608.75;4996184;28;20440;-81
2022/06/18 09:08:23;;;;;;;3.25;1.50;;;;;;;33.95;25.32;96600.59;4991407;28;20160;-80
2022/06/18 09:11:08;;;;;;;2.67;1.55;;;;;;;34.14;24.07;96597.84;4999274;28;20042;-79
2022/06/18 09:13:54;;;;;;;3.63;1.55;;;;;;;35.32;23.78;96593.47;4987975;28;20571;-81
2022/06/18 09:16:24;;;;;;;2.97;1.40;;;;;;;34.46;24.57;96599.66;4973283;28;20519;-80
2022/06/18 09:18:55;;;;;;;2.33;1.48;;;;;;;34.32;24.90;96592.59;4982310;28;20057;-81
2022/06/18 09:21:27;;;;;;;3.90;1.87;;;;;;;34.69;25.21;96592.38;4993988;28;20524;-82
2022/06/18 09:24:02;;;;;;;2.42;1.33;;;;;;;35.30;23.49;96587.50;4991310;28;20865;-81
2022/06/18 09:26:39;;;;;;;1.63;1.17;;;;;;;35.30;22.90;96584.75;4991367;28;20034;-81
2022/06/18 09:29:47;;;;;;;4.20;1.38;;;;;;;34.43;23.48;96578.41;4989419;28;20030;-81
2022/06/18 09:33:17;;;;;;;2.58;1.05;;;;;;;35.41;22.57;96582.59;4969632;28;20388;-80
2022/06/18 09:35:46;;;;;;;2.08;1.20;;;;;;;35.48;23.20;96590.34;4912976;29;20044;-80
2022/06/18 09:38:36;;;;;;;2.17;0.93;;;;;;;35.76;19.23;96585.59;4971521;28;20117;-81
2022/06/18 09:41:07;;;;;;;1.98;1.10;;;;;;;35.23;19.34;96581.66;4992719;28;20109;-81
2022/06/18 09:43:52;;;;;;;1.98;1.25;;;;;;;36.03;18.30;96579.97;4989668;28;20039;-80
2022/06/18 09:46:23;;;;;;;2.85;1.25;;;;;;;35.95;20.74;96582.63;4986792;28;20034;-80
2022/06/18 09:48:48;;;;;;;3.67;1.42;;;;;;;35.61;21.55;96582.09;4989161;28;20026;-81
2022/06/18 09:51:27;;;;;;;2.67;1.33;;;;;;;35.17;22.00;96582.88;4986172;28;20114;-82
2022/06/18 09:53:58;;;;;;;3.65;1.13;;;;;;;36.39;21.39;96575.41;4983780;28;20038;-80
2022/06/18 09:56:35;;;;;;;3.60;1.30;;;;;;;35.95;21.09;96577.16;4987884;28;20037;-81
2022/06/18 09:59:11;;;;;;;2.13;1.20;;;;;;;36.20;20.38;96568.28;4977096;28;20200;-82
2022/06/18 10:01:42;;;;;;;2.97;1.10;;;;;;;36.19;22.26;96566.69;4995368;28;20105;-82
2022/06/18 10:07:00;;;;;;;1.90;1.30;;;;;;;36.89;21.03;96566.84;4990247;28;20042;-81
2022/06/18 10:09:47;;;;;;;2.38;1.20;;;;;;;36.52;20.22;96569.03;4967389;28;20038;-80
2022/06/18 10:12:18;;;;;;;4.95;3.45;;;;;;;37.52;20.12;96568.19;4982841;28;20038;-82
2022/06/18 10:14:45;;;;;;;2.05;1.20;;;;;;;36.99;19.29;96566.56;4980543;28;20084;-81
2022/06/18 10:17:43;;;;;;;1.48;1.08;;;;;;;37.06;20.38;96555.94;4981698;28;20587;-81
2022/06/18 10:20:19;;;;;;;1.20;1.10;;;;;;;36.70;20.25;96559.75;4989217;28;20511;-81
2022/06/18 10:22:56;;;;;;;3.28;1.30;;;;;;;36.68;20.03;96562.00;4993107;28;20030;-82
2022/06/18 10:25:48;;;;;;;1.70;1.10;;;;;;;36.41;20.56;96548.53;4989602;28;20137;-82
2022/06/18 10:28:29;;;;;;;5.77;1.47;;;;;;;36.87;19.58;96550.75;4982940;28;20883;-83
2022/06/18 10:31:13;;;;;;;2.30;0.90;;;;;;;36.90;19.92;96555.59;4988605;28;20480;-83
2022/06/18 10:33:44;;;;;;;6.38;4.70;;;;;;;37.23;20.17;96544.97;4978996;28;20038;-82
2022/06/18 10:36:22;;;;;;;4.60;2.28;;;;;;;36.84;20.19;96545.09;4967370;28;20045;-82
2022/06/18 10:38:48;;;;;;;3.13;1.90;;;;;;;37.35;20.16;96541.56;4968756;28;20034;-83
2022/06/18 10:41:38;;;;;;;2.60;1.30;;;;;;;37.19;20.66;96544.00;4994100;28;20031;-81
2022/06/18 10:44:30;;;;;;;3.72;1.58;;;;;;;38.31;19.87;96535.84;4987445;28;20496;-82
2022/06/18 10:47:07;;;;;;;2.72;1.38;;;;;;;37.75;20.11;96535.84;4976439;28;20072;-82
2022/06/18 10:49:32;;;;;;;4.63;1.98;;;;;;;37.35;20.53;96535.28;4967236;28;20049;-82
2022/06/18 10:52:00;;;;;;;5.28;1.70;;;;;;;37.44;20.42;96530.63;4994412;28;20034;-81
2022/06/18 10:54:32;;;;;;;2.70;1.40;;;;;;;37.70;20.67;96525.88;4982524;28;20033;-82
2022/06/18 10:56:58;;;;;;;2.63;1.40;;;;;;;37.35;20.48;96519.63;4989064;28;20026;-81
2022/06/18 10:59:42;;;;;;;3.55;1.40;;;;;;;37.13;21.62;96523.38;4980832;28;20101;-82
2022/06/18 11:02:26;;;;;;;3.35;1.55;;;;;;;37.88;20.85;96514.81;4981866;28;20144;-81
2022/06/18 11:04:57;;;;;;;4.03;1.60;;;;;;;37.71;20.84;96512.94;5003470;28;20307;-82
2022/06/18 11:07:26;;;;;;;2.67;1.40;;;;;;;37.67;21.92;96514.75;4986347;28;20054;-82
2022/06/18 11:09:58;;;;;;;2.15;1.60;;;;;;;37.42;22.22;96519.91;4999856;28;20041;-80
2022/06/18 11:12:38;;;;;;;9.25;3.78;;;;;;;37.01;21.58;96504.00;4992054;28;20515;-81
2022/06/18 11:15:38;;;;;;;4.88;1.90;;;;;;;37.85;20.06;96505.31;4990367;28;20066;-80
2022/06/18 11:18:20;;;;;;;3.08;1.98;;;;;;;37.99;21.81;96510.59;4985909;28;20496;-82
2022/06/18 11:21:17;;;;;;;2.65;1.40;;;;;;;37.00;21.40;96516.13;4975834;28;20432;-81
2022/06/18 11:23:52;;;;;;;3.47;1.42;;;;;;;37.39;21.49;96511.53;4983115;28;20904;-79
2022/06/18 11:26:22;;;;;;;5.38;1.75;;;;;;;36.85;21.42;96500.91;4970357;28;20098;-81
2022/06/18 11:28:51;;;;;;;2.60;1.52;;;;;;;37.30;22.04;96500.59;4992316;28;20038;-82
2022/06/18 11:31:24;;;;;;;2.90;1.33;;;;;;;37.19;21.70;96499.31;4972534;28;20080;-82
2022/06/18 11:34:04;;;;;;;5.18;1.67;;;;;;;37.74;21.27;96499.38;4986091;28;20057;-82
2022/06/18 11:36:46;;;;;;;4.13;1.45;;;;;;;38.07;22.03;96496.03;4989534;28;20038;-82
2022/06/18 11:39:32;;;;;;;6.18;1.85;;;;;;;37.64;20.67;96493.44;4983830;28;20124;-82
2022/06/18 11:42:26;;;;;;;4.90;1.83;;;;;;;37.49;21.42;96492.00;4984234;28;20030;-82
2022/06/18 11:45:30;;;;;;;7.20;5.90;;;;;;;38.53;21.08;96485.28;4974097;28;20054;-84
2022/06/18 11:48:05;;;;;;;2.65;1.60;;;;;;;38.05;20.69;96487.31;4983924;28;20050;-82
2022/06/18 11:50:39;;;;;;;4.25;2.03;;;;;;;37.29;20.82;96485.25;4974323;28;20038;-83
2022/06/18 11:53:32;;;;;;;4.63;1.88;;;;;;;37.27;21.59;96485.59;4991539;28;20062;-82
2022/06/18 11:55:59;;;;;;;7.13;4.22;;;;;;;37.99;21.74;96485.88;4985435;28;20453;-81
2022/06/18 11:58:44;;;;;;;4.20;1.83;;;;;;;38.15;20.52;96475.16;4991500;28;20086;-82
2022/06/18 12:01:28;;;;;;;3.42;1.35;;;;;;;37.79;21.84;96470.94;4993269;28;20134;-83
2022/06/18 12:04:07;;;;;;;4.35;2.00;;;;;;;37.33;21.28;96469.78;4973002;28;20068;-82
2022/06/18 12:07:01;;;;;;;6.97;5.25;;;;;;;38.35;21.82;96462.59;4992504;28;20372;-82
2022/06/18 12:09:29;;;;;;;7.20;1.83;;;;;;;37.05;20.88;96469.31;4971013;28;20026;-80
2022/06/18 12:12:10;;;;;;;3.28;1.80;;;;;;;37.66;21.06;96461.81;4992898;28;20117;-82
2022/06/18 12:15:15;;;;;;;5.32;2.97;;;;;;;38.40;20.14;96455.00;4977386;28;20403;-83